sensor_id;sensor_type;location;lat;lon;timestamp;temperature;humidity
9425;DHT22;17139;52.140;11.636;2024-01-16T00:01:47;-0.30;69.30
9425;DHT22;17139;52.140;11.636;2024-01-16T00:04:14;-0.30;69.40
9425;DHT22;17139;52.140;11.636;2024-01-16T00:06:42;-0.30;69.40
9425;DHT22;17139;52.140;11.636;2024-01-16T00:09:09;-0.30;69.50
9425;DHT22;17139;52.140;11.636;2024-01-16T00:11:40;-0.30;69.30
9425;DHT22;17139;52.140;11.636;2024-01-16T00:14:07;-0.30;69.30
9425;DHT22;17139;52.140;11.636;2024-01-16T00:16:41;-0.20;69.40
9425;DHT22;17139;52.140;11.636;2024-01-16T00:19:09;0.00;69.00
9425;DHT22;17139;52.140;11.636;2024-01-16T00:21:39;0.10;68.60
9425;DHT22;17139;52.140;11.636;2024-01-16T00:24:08;0.00;68.90
9425;DHT22;17139;52.140;11.636;2024-01-16T00:26:35;0.20;68.80
9425;DHT22;17139;52.140;11.636;2024-01-16T00:29:02;0.20;69.20
9425;DHT22;17139;52.140;11.636;2024-01-16T00:31:29;0.10;68.60
9425;DHT22;17139;52.140;11.636;2024-01-16T00:33:56;0.10;68.80
9425;DHT22;17139;52.140;11.636;2024-01-16T00:36:23;0.00;68.90
9425;DHT22;17139;52.140;11.636;2024-01-16T00:38:51;-0.10;69.00
9425;DHT22;17139;52.140;11.636;2024-01-16T00:41:19;-0.10;69.00
9425;DHT22;17139;52.140;11.636;2024-01-16T00:43:46;-0.10;69.10
9425;DHT22;17139;52.140;11.636;2024-01-16T00:46:13;-0.10;69.10
9425;DHT22;17139;52.140;11.636;2024-01-16T00:48:40;-0.10;69.30
9425;DHT22;17139;52.140;11.636;2024-01-16T00:51:07;-0.20;69.40
9425;DHT22;17139;52.140;11.636;2024-01-16T00:53:40;-0.20;69.40
9425;DHT22;17139;52.140;11.636;2024-01-16T00:56:07;-0.20;69.40
9425;DHT22;17139;52.140;11.636;2024-01-16T00:58:35;-0.30;69.40
9425;DHT22;17139;52.140;11.636;2024-01-16T01:01:03;-0.30;69.60
9425;DHT22;17139;52.140;11.636;2024-01-16T01:03:31;-0.40;69.70
9425;DHT22;17139;52.140;11.636;2024-01-16T01:06:00;0.30;68.80
9425;DHT22;17139;52.140;11.636;2024-01-16T01:08:27;0.10;68.20
9425;DHT22;17139;52.140;11.636;2024-01-16T01:10:54;-0.10;68.60
9425;DHT22;17139;52.140;11.636;2024-01-16T01:13:21;-0.10;69.00
9425;DHT22;17139;52.140;11.636;2024-01-16T01:15:52;-0.20;69.20
9425;DHT22;17139;52.140;11.636;2024-01-16T01:18:19;-0.20;69.40
9425;DHT22;17139;52.140;11.636;2024-01-16T01:20:46;-0.20;69.40
9425;DHT22;17139;52.140;11.636;2024-01-16T01:23:13;-0.20;69.40
9425;DHT22;17139;52.140;11.636;2024-01-16T01:25:40;-0.20;69.40
9425;DHT22;17139;52.140;11.636;2024-01-16T01:28:08;-0.20;69.40
9425;DHT22;17139;52.140;11.636;2024-01-16T01:30:36;-0.30;69.30
9425;DHT22;17139;52.140;11.636;2024-01-16T01:33:05;-0.30;69.40
9425;DHT22;17139;52.140;11.636;2024-01-16T01:35:32;-0.40;69.50
9425;DHT22;17139;52.140;11.636;2024-01-16T01:37:59;-0.50;69.50
9425;DHT22;17139;52.140;11.636;2024-01-16T01:40:26;-0.50;69.70
9425;DHT22;17139;52.140;11.636;2024-01-16T01:42:53;-0.60;69.80
9425;DHT22;17139;52.140;11.636;2024-01-16T01:45:20;-0.60;69.80
9425;DHT22;17139;52.140;11.636;2024-01-16T01:47:48;-0.60;69.90
9425;DHT22;17139;52.140;11.636;2024-01-16T01:50:17;-0.60;70.00
9425;DHT22;17139;52.140;11.636;2024-01-16T01:52:44;-0.50;69.60
9425;DHT22;17139;52.140;11.636;2024-01-16T01:55:13;-0.50;69.60
9425;DHT22;17139;52.140;11.636;2024-01-16T01:57:41;-0.50;69.60
9425;DHT22;17139;52.140;11.636;2024-01-16T02:00:10;0.10;68.30
9425;DHT22;17139;52.140;11.636;2024-01-16T02:02:37;0.00;67.90
9425;DHT22;17139;52.140;11.636;2024-01-16T02:05:05;-0.20;68.40
9425;DHT22;17139;52.140;11.636;2024-01-16T02:07:34;-0.20;68.90
9425;DHT22;17139;52.140;11.636;2024-01-16T02:10:02;-0.30;68.90
9425;DHT22;17139;52.140;11.636;2024-01-16T02:12:29;-0.30;69.20
9425;DHT22;17139;52.140;11.636;2024-01-16T02:14:57;-0.30;69.30
9425;DHT22;17139;52.140;11.636;2024-01-16T02:17:24;-0.30;69.40
9425;DHT22;17139;52.140;11.636;2024-01-16T02:19:51;-0.30;69.40
9425;DHT22;17139;52.140;11.636;2024-01-16T02:22:20;-0.30;69.40
9425;DHT22;17139;52.140;11.636;2024-01-16T02:24:52;-0.30;69.40
9425;DHT22;17139;52.140;11.636;2024-01-16T02:27:19;-0.40;69.30
9425;DHT22;17139;52.140;11.636;2024-01-16T02:29:46;-0.40;69.30
9425;DHT22;17139;52.140;11.636;2024-01-16T02:32:13;-0.40;69.30
9425;DHT22;17139;52.140;11.636;2024-01-16T02:34:40;-0.30;69.40
9425;DHT22;17139;52.140;11.636;2024-01-16T02:37:07;-0.30;69.40
9425;DHT22;17139;52.140;11.636;2024-01-16T02:39:34;-0.20;69.20
9425;DHT22;17139;52.140;11.636;2024-01-16T02:42:03;-0.20;68.90
9425;DHT22;17139;52.140;11.636;2024-01-16T02:44:30;-0.20;69.00
9425;DHT22;17139;52.140;11.636;2024-01-16T02:46:57;-0.30;69.10
9425;DHT22;17139;52.140;11.636;2024-01-16T02:49:24;-0.20;69.10
9425;DHT22;17139;52.140;11.636;2024-01-16T02:51:51;-0.20;69.30
9425;DHT22;17139;52.140;11.636;2024-01-16T02:54:21;-0.20;69.40
9425;DHT22;17139;52.140;11.636;2024-01-16T02:56:48;-0.30;69.30
9425;DHT22;17139;52.140;11.636;2024-01-16T02:59:16;-0.30;69.40
9425;DHT22;17139;52.140;11.636;2024-01-16T03:01:43;-0.30;69.50
9425;DHT22;17139;52.140;11.636;2024-01-16T03:04:10;-0.30;69.60
9425;DHT22;17139;52.140;11.636;2024-01-16T03:06:40;-0.40;69.60
9425;DHT22;17139;52.140;11.636;2024-01-16T03:09:07;-0.40;69.60
9425;DHT22;17139;52.140;11.636;2024-01-16T03:11:34;-0.40;69.60
9425;DHT22;17139;52.140;11.636;2024-01-16T03:14:01;-0.40;69.60
9425;DHT22;17139;52.140;11.636;2024-01-16T03:16:30;-0.40;69.60
9425;DHT22;17139;52.140;11.636;2024-01-16T03:18:57;-0.40;69.60
9425;DHT22;17139;52.140;11.636;2024-01-16T03:21:24;-0.40;69.50
9425;DHT22;17139;52.140;11.636;2024-01-16T03:23:51;-0.40;69.60
9425;DHT22;17139;52.140;11.636;2024-01-16T03:26:18;-0.40;69.60
9425;DHT22;17139;52.140;11.636;2024-01-16T03:28:45;0.10;68.80
9425;DHT22;17139;52.140;11.636;2024-01-16T03:31:13;0.10;68.30
9425;DHT22;17139;52.140;11.636;2024-01-16T03:33:42;0.00;68.40
9425;DHT22;17139;52.140;11.636;2024-01-16T03:36:09;0.30;67.80
9425;DHT22;17139;52.140;11.636;2024-01-16T03:38:37;0.10;67.50
9425;DHT22;17139;52.140;11.636;2024-01-16T03:41:04;-0.10;68.10
9425;DHT22;17139;52.140;11.636;2024-01-16T03:43:32;-0.30;68.60
9425;DHT22;17139;52.140;11.636;2024-01-16T03:46:00;-0.30;69.00
9425;DHT22;17139;52.140;11.636;2024-01-16T03:48:27;-0.30;69.20
9425;DHT22;17139;52.140;11.636;2024-01-16T03:50:56;-0.30;69.30
9425;DHT22;17139;52.140;11.636;2024-01-16T03:53:23;-0.40;69.30
9425;DHT22;17139;52.140;11.636;2024-01-16T03:55:51;-0.30;69.50
9425;DHT22;17139;52.140;11.636;2024-01-16T03:58:18;-0.40;69.50
9425;DHT22;17139;52.140;11.636;2024-01-16T04:00:46;-0.30;69.50
9425;DHT22;17139;52.140;11.636;2024-01-16T04:03:16;-0.40;69.30
9425;DHT22;17139;52.140;11.636;2024-01-16T04:05:43;-0.30;69.50
9425;DHT22;17139;52.140;11.636;2024-01-16T04:08:12;-0.30;69.50
9425;DHT22;17139;52.140;11.636;2024-01-16T04:10:39;-0.30;69.40
9425;DHT22;17139;52.140;11.636;2024-01-16T04:13:06;-0.30;69.30
9425;DHT22;17139;52.140;11.636;2024-01-16T04:15:33;-0.20;69.40
9425;DHT22;17139;52.140;11.636;2024-01-16T04:18:00;-0.20;69.40
9425;DHT22;17139;52.140;11.636;2024-01-16T04:20:27;-0.20;69.40
9425;DHT22;17139;52.140;11.636;2024-01-16T04:22:54;-0.20;69.30
9425;DHT22;17139;52.140;11.636;2024-01-16T04:25:23;-0.20;69.30
9425;DHT22;17139;52.140;11.636;2024-01-16T04:27:50;-0.20;69.30
9425;DHT22;17139;52.140;11.636;2024-01-16T04:30:17;-0.20;69.30
9425;DHT22;17139;52.140;11.636;2024-01-16T04:32:45;-0.20;69.20
9425;DHT22;17139;52.140;11.636;2024-01-16T04:35:13;-0.20;69.20
9425;DHT22;17139;52.140;11.636;2024-01-16T04:37:40;-0.20;69.20
9425;DHT22;17139;52.140;11.636;2024-01-16T04:40:08;-0.30;69.20
9425;DHT22;17139;52.140;11.636;2024-01-16T04:42:36;-0.30;69.20
9425;DHT22;17139;52.140;11.636;2024-01-16T04:45:04;-0.40;69.10
9425;DHT22;17139;52.140;11.636;2024-01-16T04:47:32;-0.40;69.10
9425;DHT22;17139;52.140;11.636;2024-01-16T04:49:59;-0.50;69.10
9425;DHT22;17139;52.140;11.636;2024-01-16T04:52:26;-0.50;69.20
9425;DHT22;17139;52.140;11.636;2024-01-16T04:54:53;-0.40;69.40
9425;DHT22;17139;52.140;11.636;2024-01-16T04:57:20;-0.50;69.30
9425;DHT22;17139;52.140;11.636;2024-01-16T04:59:48;-0.50;69.30
9425;DHT22;17139;52.140;11.636;2024-01-16T05:02:15;-0.60;69.30
9425;DHT22;17139;52.140;11.636;2024-01-16T05:04:43;-0.60;69.50
9425;DHT22;17139;52.140;11.636;2024-01-16T05:07:11;-0.50;69.60
9425;DHT22;17139;52.140;11.636;2024-01-16T05:09:38;-0.50;69.40
9425;DHT22;17139;52.140;11.636;2024-01-16T05:12:05;-0.40;69.20
9425;DHT22;17139;52.140;11.636;2024-01-16T05:14:32;-0.40;69.20
9425;DHT22;17139;52.140;11.636;2024-01-16T05:17:01;-0.30;69.30
9425;DHT22;17139;52.140;11.636;2024-01-16T05:19:28;-0.40;69.10
9425;DHT22;17139;52.140;11.636;2024-01-16T05:21:55;-0.30;69.30
9425;DHT22;17139;52.140;11.636;2024-01-16T05:24:22;-0.30;69.30
9425;DHT22;17139;52.140;11.636;2024-01-16T05:26:49;-0.40;69.10
9425;DHT22;17139;52.140;11.636;2024-01-16T05:29:17;-0.40;69.10
9425;DHT22;17139;52.140;11.636;2024-01-16T05:31:44;0.30;67.70
9425;DHT22;17139;52.140;11.636;2024-01-16T05:34:14;0.20;67.50
9425;DHT22;17139;52.140;11.636;2024-01-16T05:36:41;0.00;68.10
9425;DHT22;17139;52.140;11.636;2024-01-16T05:39:09;0.40;67.00
9425;DHT22;17139;52.140;11.636;2024-01-16T05:41:37;0.20;66.90
9425;DHT22;17139;52.140;11.636;2024-01-16T05:44:04;-0.10;67.90
9425;DHT22;17139;52.140;11.636;2024-01-16T05:46:31;-0.30;68.60
9425;DHT22;17139;52.140;11.636;2024-01-16T05:48:58;-0.40;68.90
9425;DHT22;17139;52.140;11.636;2024-01-16T05:51:28;-0.50;69.20
9425;DHT22;17139;52.140;11.636;2024-01-16T05:53:55;-0.50;69.40
9425;DHT22;17139;52.140;11.636;2024-01-16T05:56:22;-0.40;69.20
9425;DHT22;17139;52.140;11.636;2024-01-16T05:58:49;0.10;67.90
9425;DHT22;17139;52.140;11.636;2024-01-16T06:01:17;0.00;67.40
9425;DHT22;17139;52.140;11.636;2024-01-16T06:03:44;-0.20;68.10
9425;DHT22;17139;52.140;11.636;2024-01-16T06:06:14;-0.20;68.10
9425;DHT22;17139;52.140;11.636;2024-01-16T06:08:42;-0.20;68.10
9425;DHT22;17139;52.140;11.636;2024-01-16T06:11:09;-0.20;68.30
9425;DHT22;17139;52.140;11.636;2024-01-16T06:13:37;-0.30;68.30
9425;DHT22;17139;52.140;11.636;2024-01-16T06:16:05;-0.40;68.70
9425;DHT22;17139;52.140;11.636;2024-01-16T06:18:33;-0.50;68.90
9425;DHT22;17139;52.140;11.636;2024-01-16T06:21:00;-0.50;69.10
9425;DHT22;17139;52.140;11.636;2024-01-16T06:23:28;-0.30;69.50
9425;DHT22;17139;52.140;11.636;2024-01-16T06:25:56;-0.30;68.30
9425;DHT22;17139;52.140;11.636;2024-01-16T06:28:23;-0.40;68.70
9425;DHT22;17139;52.140;11.636;2024-01-16T06:30:50;0.10;67.80
9425;DHT22;17139;52.140;11.636;2024-01-16T06:33:17;0.00;67.60
9425;DHT22;17139;52.140;11.636;2024-01-16T06:35:44;-0.20;68.10
9425;DHT22;17139;52.140;11.636;2024-01-16T06:38:11;-0.30;68.60
9425;DHT22;17139;52.140;11.636;2024-01-16T06:40:38;-0.40;68.80
9425;DHT22;17139;52.140;11.636;2024-01-16T06:43:06;-0.40;69.10
9425;DHT22;17139;52.140;11.636;2024-01-16T06:45:34;-0.40;69.30
9425;DHT22;17139;52.140;11.636;2024-01-16T06:48:01;-0.40;69.30
9425;DHT22;17139;52.140;11.636;2024-01-16T06:50:28;-0.40;69.40
9425;DHT22;17139;52.140;11.636;2024-01-16T06:52:55;-0.40;69.30
9425;DHT22;17139;52.140;11.636;2024-01-16T06:55:22;-0.40;69.30
9425;DHT22;17139;52.140;11.636;2024-01-16T06:57:49;-0.40;69.20
9425;DHT22;17139;52.140;11.636;2024-01-16T07:00:18;-0.40;69.30
9425;DHT22;17139;52.140;11.636;2024-01-16T07:02:45;-0.40;69.30
9425;DHT22;17139;52.140;11.636;2024-01-16T07:05:12;-0.40;69.40
9425;DHT22;17139;52.140;11.636;2024-01-16T07:07:39;0.00;68.80
9425;DHT22;17139;52.140;11.636;2024-01-16T07:10:07;0.00;68.20
9425;DHT22;17139;52.140;11.636;2024-01-16T07:12:38;-0.10;68.60
9425;DHT22;17139;52.140;11.636;2024-01-16T07:15:06;-0.20;68.90
9425;DHT22;17139;52.140;11.636;2024-01-16T07:17:35;-0.20;68.90
9425;DHT22;17139;52.140;11.636;2024-01-16T07:20:02;-0.20;69.10
9425;DHT22;17139;52.140;11.636;2024-01-16T07:22:29;-0.20;69.20
9425;DHT22;17139;52.140;11.636;2024-01-16T07:24:56;-0.20;69.20
9425;DHT22;17139;52.140;11.636;2024-01-16T07:27:24;-0.30;69.10
9425;DHT22;17139;52.140;11.636;2024-01-16T07:29:51;-0.30;69.10
9425;DHT22;17139;52.140;11.636;2024-01-16T07:32:18;-0.30;69.00
9425;DHT22;17139;52.140;11.636;2024-01-16T07:34:46;-0.30;69.00
9425;DHT22;17139;52.140;11.636;2024-01-16T07:37:13;-0.30;69.00
9425;DHT22;17139;52.140;11.636;2024-01-16T07:39:41;-0.30;69.00
9425;DHT22;17139;52.140;11.636;2024-01-16T07:42:07;-0.20;69.10
9425;DHT22;17139;52.140;11.636;2024-01-16T07:44:34;-0.20;69.00
9425;DHT22;17139;52.140;11.636;2024-01-16T07:47:01;-0.20;68.90
9425;DHT22;17139;52.140;11.636;2024-01-16T07:49:29;-0.20;68.90
9425;DHT22;17139;52.140;11.636;2024-01-16T07:51:57;-0.20;68.90
9425;DHT22;17139;52.140;11.636;2024-01-16T07:54:24;-0.10;68.90
9425;DHT22;17139;52.140;11.636;2024-01-16T07:56:51;-0.10;68.90
9425;DHT22;17139;52.140;11.636;2024-01-16T07:59:18;-0.10;68.90
9425;DHT22;17139;52.140;11.636;2024-01-16T08:01:45;-0.10;68.80
9425;DHT22;17139;52.140;11.636;2024-01-16T08:04:12;-0.10;68.90
9425;DHT22;17139;52.140;11.636;2024-01-16T08:06:39;-0.20;68.90
9425;DHT22;17139;52.140;11.636;2024-01-16T08:09:08;-0.30;69.00
9425;DHT22;17139;52.140;11.636;2024-01-16T08:11:37;-0.30;69.30
9425;DHT22;17139;52.140;11.636;2024-01-16T08:14:06;-0.40;69.30
9425;DHT22;17139;52.140;11.636;2024-01-16T08:16:34;-0.40;69.50
9425;DHT22;17139;52.140;11.636;2024-01-16T08:19:01;-0.40;69.50
9425;DHT22;17139;52.140;11.636;2024-01-16T08:21:28;-0.50;69.40
9425;DHT22;17139;52.140;11.636;2024-01-16T08:23:55;-0.40;69.50
9425;DHT22;17139;52.140;11.636;2024-01-16T08:26:23;-0.40;69.20
9425;DHT22;17139;52.140;11.636;2024-01-16T08:28:50;-0.50;69.10
9425;DHT22;17139;52.140;11.636;2024-01-16T08:31:18;-0.50;69.20
9425;DHT22;17139;52.140;11.636;2024-01-16T08:33:45;-0.60;69.10
9425;DHT22;17139;52.140;11.636;2024-01-16T08:36:13;-0.50;69.20
9425;DHT22;17139;52.140;11.636;2024-01-16T08:38:40;-0.60;69.10
9425;DHT22;17139;52.140;11.636;2024-01-16T08:41:07;-0.60;69.10
9425;DHT22;17139;52.140;11.636;2024-01-16T08:43:36;-0.60;69.10
9425;DHT22;17139;52.140;11.636;2024-01-16T08:46:03;-0.60;69.00
9425;DHT22;17139;52.140;11.636;2024-01-16T08:48:30;-0.60;69.00
9425;DHT22;17139;52.140;11.636;2024-01-16T08:50:57;-0.60;69.00
9425;DHT22;17139;52.140;11.636;2024-01-16T08:53:24;-0.60;69.00
9425;DHT22;17139;52.140;11.636;2024-01-16T08:55:51;-0.60;69.00
9425;DHT22;17139;52.140;11.636;2024-01-16T08:58:18;-0.10;68.20
9425;DHT22;17139;52.140;11.636;2024-01-16T09:00:47;-0.10;67.80
9425;DHT22;17139;52.140;11.636;2024-01-16T09:03:13;-0.30;68.00
9425;DHT22;17139;52.140;11.636;2024-01-16T09:05:41;-0.30;68.50
9425;DHT22;17139;52.140;11.636;2024-01-16T09:08:08;-0.40;69.40
9425;DHT22;17139;52.140;11.636;2024-01-16T09:10:35;-0.40;69.60
9425;DHT22;17139;52.140;11.636;2024-01-16T09:13:03;-0.40;69.00
9425;DHT22;17139;52.140;11.636;2024-01-16T09:15:30;-0.40;69.10
9425;DHT22;17139;52.140;11.636;2024-01-16T09:17:59;-0.40;69.10
9425;DHT22;17139;52.140;11.636;2024-01-16T09:20:27;-0.40;69.10
9425;DHT22;17139;52.140;11.636;2024-01-16T09:22:54;-0.40;69.10
9425;DHT22;17139;52.140;11.636;2024-01-16T09:25:21;-0.40;69.90
9425;DHT22;17139;52.140;11.636;2024-01-16T09:27:50;-0.40;69.10
9425;DHT22;17139;52.140;11.636;2024-01-16T09:30:17;-0.40;69.00
9425;DHT22;17139;52.140;11.636;2024-01-16T09:32:44;-0.40;68.90
9425;DHT22;17139;52.140;11.636;2024-01-16T09:35:14;-0.30;68.90
9425;DHT22;17139;52.140;11.636;2024-01-16T09:37:41;-0.30;68.60
9425;DHT22;17139;52.140;11.636;2024-01-16T09:40:09;-0.20;68.40
9425;DHT22;17139;52.140;11.636;2024-01-16T09:42:37;-0.20;68.50
9425;DHT22;17139;52.140;11.636;2024-01-16T09:45:04;0.10;68.20
9425;DHT22;17139;52.140;11.636;2024-01-16T09:47:32;0.20;67.90
9425;DHT22;17139;52.140;11.636;2024-01-16T09:50:02;0.20;68.20
9425;DHT22;17139;52.140;11.636;2024-01-16T09:52:31;0.20;68.40
9425;DHT22;17139;52.140;11.636;2024-01-16T09:54:58;0.10;68.30
9425;DHT22;17139;52.140;11.636;2024-01-16T09:57:25;0.10;68.40
9425;DHT22;17139;52.140;11.636;2024-01-16T09:59:52;0.10;68.40
9425;DHT22;17139;52.140;11.636;2024-01-16T10:02:20;0.10;68.40
9425;DHT22;17139;52.140;11.636;2024-01-16T10:04:49;0.20;68.50
9425;DHT22;17139;52.140;11.636;2024-01-16T10:07:16;0.20;68.40
9425;DHT22;17139;52.140;11.636;2024-01-16T10:09:45;0.30;68.60
9425;DHT22;17139;52.140;11.636;2024-01-16T10:12:13;0.30;68.50
9425;DHT22;17139;52.140;11.636;2024-01-16T10:14:41;0.30;68.50
9425;DHT22;17139;52.140;11.636;2024-01-16T10:17:09;0.40;68.40
9425;DHT22;17139;52.140;11.636;2024-01-16T10:19:48;0.50;68.60
9425;DHT22;17139;52.140;11.636;2024-01-16T10:22:20;1.20;66.80
9425;DHT22;17139;52.140;11.636;2024-01-16T10:24:49;1.10;66.90
9425;DHT22;17139;52.140;11.636;2024-01-16T10:27:16;1.10;66.90
9425;DHT22;17139;52.140;11.636;2024-01-16T10:29:54;1.10;67.10
9425;DHT22;17139;52.140;11.636;2024-01-16T10:32:29;1.00;67.60
9425;DHT22;17139;52.140;11.636;2024-01-16T10:35:07;0.90;67.70
9425;DHT22;17139;52.140;11.636;2024-01-16T10:37:45;1.00;68.10
9425;DHT22;17139;52.140;11.636;2024-01-16T10:40:16;1.00;68.20
9425;DHT22;17139;52.140;11.636;2024-01-16T10:42:44;1.00;68.20
9425;DHT22;17139;52.140;11.636;2024-01-16T10:45:17;1.00;68.20
9425;DHT22;17139;52.140;11.636;2024-01-16T10:47:46;0.90;68.10
9425;DHT22;17139;52.140;11.636;2024-01-16T10:50:13;1.00;68.30
9425;DHT22;17139;52.140;11.636;2024-01-16T10:52:48;1.00;68.20
9425;DHT22;17139;52.140;11.636;2024-01-16T10:55:20;1.10;68.20
9425;DHT22;17139;52.140;11.636;2024-01-16T10:57:48;1.20;68.20
9425;DHT22;17139;52.140;11.636;2024-01-16T11:00:19;1.20;68.10
9425;DHT22;17139;52.140;11.636;2024-01-16T11:02:51;1.30;67.90
9425;DHT22;17139;52.140;11.636;2024-01-16T11:05:22;1.40;68.00
9425;DHT22;17139;52.140;11.636;2024-01-16T11:07:50;1.50;68.00
9425;DHT22;17139;52.140;11.636;2024-01-16T11:10:18;1.80;67.30
9425;DHT22;17139;52.140;11.636;2024-01-16T11:12:46;1.90;67.00
9425;DHT22;17139;52.140;11.636;2024-01-16T11:15:14;1.80;67.20
9425;DHT22;17139;52.140;11.636;2024-01-16T11:17:44;1.90;67.50
9425;DHT22;17139;52.140;11.636;2024-01-16T11:20:12;1.80;67.40
9425;DHT22;17139;52.140;11.636;2024-01-16T11:22:43;1.80;67.50
9425;DHT22;17139;52.140;11.636;2024-01-16T11:25:12;1.90;67.80
9425;DHT22;17139;52.140;11.636;2024-01-16T11:27:42;1.90;67.80
9425;DHT22;17139;52.140;11.636;2024-01-16T11:30:10;1.80;67.70
9425;DHT22;17139;52.140;11.636;2024-01-16T11:32:39;1.80;67.80
9425;DHT22;17139;52.140;11.636;2024-01-16T11:35:07;1.70;67.70
9425;DHT22;17139;52.140;11.636;2024-01-16T11:37:35;1.70;68.00
9425;DHT22;17139;52.140;11.636;2024-01-16T11:40:29;1.70;68.10
9425;DHT22;17139;52.140;11.636;2024-01-16T11:43:35;1.70;68.00
9425;DHT22;17139;52.140;11.636;2024-01-16T11:46:04;1.70;68.10
9425;DHT22;17139;52.140;11.636;2024-01-16T11:48:31;2.40;66.00
9425;DHT22;17139;52.140;11.636;2024-01-16T11:50:58;2.30;66.30
9425;DHT22;17139;52.140;11.636;2024-01-16T11:53:35;2.10;66.70
9425;DHT22;17139;52.140;11.636;2024-01-16T11:59:42;1.90;67.50
9425;DHT22;17139;52.140;11.636;2024-01-16T12:02:18;1.90;68.00
9425;DHT22;17139;52.140;11.636;2024-01-16T12:04:52;1.80;68.20
9425;DHT22;17139;52.140;11.636;2024-01-16T12:07:22;1.90;68.20
9425;DHT22;17139;52.140;11.636;2024-01-16T12:09:49;1.80;68.00
9425;DHT22;17139;52.140;11.636;2024-01-16T12:12:16;1.80;68.20
9425;DHT22;17139;52.140;11.636;2024-01-16T12:14:52;1.90;68.80
9425;DHT22;17139;52.140;11.636;2024-01-16T12:17:20;2.00;68.10
9425;DHT22;17139;52.140;11.636;2024-01-16T12:19:47;2.00;68.00
9425;DHT22;17139;52.140;11.636;2024-01-16T12:22:15;2.00;68.00
9425;DHT22;17139;52.140;11.636;2024-01-16T12:24:44;2.00;68.00
9425;DHT22;17139;52.140;11.636;2024-01-16T12:27:13;1.90;68.10
9425;DHT22;17139;52.140;11.636;2024-01-16T12:29:40;1.90;68.20
9425;DHT22;17139;52.140;11.636;2024-01-16T12:32:09;1.90;68.10
9425;DHT22;17139;52.140;11.636;2024-01-16T12:34:43;1.90;68.10
9425;DHT22;17139;52.140;11.636;2024-01-16T12:37:12;1.90;68.10
9425;DHT22;17139;52.140;11.636;2024-01-16T12:39:39;1.90;68.20
9425;DHT22;17139;52.140;11.636;2024-01-16T12:42:08;1.90;68.40
9425;DHT22;17139;52.140;11.636;2024-01-16T12:44:37;1.90;68.40
9425;DHT22;17139;52.140;11.636;2024-01-16T12:47:04;2.00;68.50
9425;DHT22;17139;52.140;11.636;2024-01-16T12:49:33;2.00;68.40
9425;DHT22;17139;52.140;11.636;2024-01-16T12:52:20;2.10;68.50
9425;DHT22;17139;52.140;11.636;2024-01-16T12:54:48;2.10;68.50
9425;DHT22;17139;52.140;11.636;2024-01-16T12:57:19;2.10;68.50
9425;DHT22;17139;52.140;11.636;2024-01-16T12:59:47;2.10;68.40
9425;DHT22;17139;52.140;11.636;2024-01-16T13:02:22;2.30;67.80
9425;DHT22;17139;52.140;11.636;2024-01-16T13:04:58;2.30;67.50
9425;DHT22;17139;52.140;11.636;2024-01-16T13:07:25;2.20;67.70
9425;DHT22;17139;52.140;11.636;2024-01-16T13:10:06;2.10;68.10
9425;DHT22;17139;52.140;11.636;2024-01-16T13:12:34;2.40;67.40
9425;DHT22;17139;52.140;11.636;2024-01-16T13:15:02;2.30;67.50
9425;DHT22;17139;52.140;11.636;2024-01-16T13:17:32;2.20;67.90
9425;DHT22;17139;52.140;11.636;2024-01-16T13:20:00;2.70;66.80
9425;DHT22;17139;52.140;11.636;2024-01-16T13:22:29;2.60;67.00
9425;DHT22;17139;52.140;11.636;2024-01-16T13:24:56;2.30;67.40
9425;DHT22;17139;52.140;11.636;2024-01-16T13:27:23;2.20;67.80
9425;DHT22;17139;52.140;11.636;2024-01-16T13:29:52;2.70;67.00
9425;DHT22;17139;52.140;11.636;2024-01-16T13:32:19;2.50;66.80
9425;DHT22;17139;52.140;11.636;2024-01-16T13:34:47;2.30;67.40
9425;DHT22;17139;52.140;11.636;2024-01-16T13:37:22;2.10;67.70
9425;DHT22;17139;52.140;11.636;2024-01-16T13:39:49;2.00;68.10
9425;DHT22;17139;52.140;11.636;2024-01-16T13:42:16;1.90;68.40
9425;DHT22;17139;52.140;11.636;2024-01-16T13:44:45;1.90;68.40
9425;DHT22;17139;52.140;11.636;2024-01-16T13:47:15;1.80;68.40
9425;DHT22;17139;52.140;11.636;2024-01-16T13:49:44;2.00;67.90
9425;DHT22;17139;52.140;11.636;2024-01-16T13:52:11;1.90;67.60
9425;DHT22;17139;52.140;11.636;2024-01-16T13:54:40;1.80;68.10
9425;DHT22;17139;52.140;11.636;2024-01-16T13:57:07;1.70;68.30
9425;DHT22;17139;52.140;11.636;2024-01-16T13:59:35;1.90;67.90
9425;DHT22;17139;52.140;11.636;2024-01-16T14:02:02;1.90;67.80
9425;DHT22;17139;52.140;11.636;2024-01-16T14:04:29;1.80;68.10
9425;DHT22;17139;52.140;11.636;2024-01-16T14:06:57;1.70;68.50
9425;DHT22;17139;52.140;11.636;2024-01-16T14:09:24;1.70;68.80
9425;DHT22;17139;52.140;11.636;2024-01-16T14:11:52;1.60;68.80
9425;DHT22;17139;52.140;11.636;2024-01-16T14:14:19;1.70;69.00
9425;DHT22;17139;52.140;11.636;2024-01-16T14:16:46;1.60;68.90
9425;DHT22;17139;52.140;11.636;2024-01-16T14:19:15;1.60;69.00
9425;DHT22;17139;52.140;11.636;2024-01-16T14:21:43;1.60;69.00
9425;DHT22;17139;52.140;11.636;2024-01-16T14:24:10;1.60;69.00
9425;DHT22;17139;52.140;11.636;2024-01-16T14:26:37;1.50;68.90
9425;DHT22;17139;52.140;11.636;2024-01-16T14:29:06;2.10;67.40
9425;DHT22;17139;52.140;11.636;2024-01-16T14:31:34;1.90;67.20
9425;DHT22;17139;52.140;11.636;2024-01-16T14:34:01;1.70;68.00
9425;DHT22;17139;52.140;11.636;2024-01-16T14:36:29;2.10;67.10
9425;DHT22;17139;52.140;11.636;2024-01-16T14:38:56;2.00;67.20
9425;DHT22;17139;52.140;11.636;2024-01-16T14:41:23;1.70;67.70
9425;DHT22;17139;52.140;11.636;2024-01-16T14:43:51;1.50;68.20
9425;DHT22;17139;52.140;11.636;2024-01-16T14:46:19;1.40;68.60
9425;DHT22;17139;52.140;11.636;2024-01-16T14:48:46;1.30;68.80
9425;DHT22;17139;52.140;11.636;2024-01-16T14:51:13;1.20;68.90
9425;DHT22;17139;52.140;11.636;2024-01-16T14:53:40;1.20;69.00
9425;DHT22;17139;52.140;11.636;2024-01-16T14:56:07;1.10;69.10
9425;DHT22;17139;52.140;11.636;2024-01-16T14:58:35;1.10;69.20
9425;DHT22;17139;52.140;11.636;2024-01-16T15:01:02;1.10;69.30
9425;DHT22;17139;52.140;11.636;2024-01-16T15:03:31;1.00;69.20
9425;DHT22;17139;52.140;11.636;2024-01-16T15:05:59;1.00;69.20
9425;DHT22;17139;52.140;11.636;2024-01-16T15:08:26;1.10;69.00
9425;DHT22;17139;52.140;11.636;2024-01-16T15:10:54;1.10;68.60
9425;DHT22;17139;52.140;11.636;2024-01-16T15:13:21;1.00;68.80
9425;DHT22;17139;52.140;11.636;2024-01-16T15:15:49;1.10;68.70
9425;DHT22;17139;52.140;11.636;2024-01-16T15:18:17;1.00;68.40
9425;DHT22;17139;52.140;11.636;2024-01-16T15:20:46;0.90;68.60
9425;DHT22;17139;52.140;11.636;2024-01-16T15:23:13;0.80;68.80
9425;DHT22;17139;52.140;11.636;2024-01-16T15:25:40;0.80;69.00
9425;DHT22;17139;52.140;11.636;2024-01-16T15:28:07;0.70;68.90
9425;DHT22;17139;52.140;11.636;2024-01-16T15:30:34;0.70;69.00
9425;DHT22;17139;52.140;11.636;2024-01-16T15:33:02;0.60;69.10
9425;DHT22;17139;52.140;11.636;2024-01-16T15:35:30;0.60;69.10
9425;DHT22;17139;52.140;11.636;2024-01-16T15:37:59;0.60;69.10
9425;DHT22;17139;52.140;11.636;2024-01-16T15:40:28;0.50;69.20
9425;DHT22;17139;52.140;11.636;2024-01-16T15:42:55;0.50;69.20
9425;DHT22;17139;52.140;11.636;2024-01-16T15:45:23;0.50;69.30
9425;DHT22;17139;52.140;11.636;2024-01-16T15:47:51;0.40;69.20